sensor_id;sensor_type;location;lat;lon;timestamp;pressure;altitude;pressure_sealevel;temperature;humidity
62800;BME280;48842;51.046;13.796;2023-12-20T00:00:51;99973.97;;;9.59;63.95
62800;BME280;48842;51.046;13.796;2023-12-20T00:03:16;99973.06;;;9.57;64.14
62800;BME280;48842;51.046;13.796;2023-12-20T00:05:42;99977.44;;;9.58;63.99
62800;BME280;48842;51.046;13.796;2023-12-20T00:08:07;99970.47;;;9.57;63.81
62800;BME280;48842;51.046;13.796;2023-12-20T00:10:32;99969.59;;;9.57;63.72
62800;BME280;48842;51.046;13.796;2023-12-20T00:12:57;99968.75;;;9.58;63.72
62800;BME280;48842;51.046;13.796;2023-12-20T00:15:23;99963.50;;;9.58;63.79
62800;BME280;48842;51.046;13.796;2023-12-20T00:17:48;99960.00;;;9.57;63.73
62800;BME280;48842;51.046;13.796;2023-12-20T00:20:13;99961.75;;;9.55;64.01
62800;BME280;48842;51.046;13.796;2023-12-20T00:22:39;99961.75;;;9.54;63.85
62800;BME280;48842;51.046;13.796;2023-12-20T00:25:04;99954.78;;;9.54;63.89
62800;BME280;48842;51.046;13.796;2023-12-20T00:27:29;99964.38;;;9.51;63.97
62800;BME280;48842;51.046;13.796;2023-12-20T00:29:55;99953.03;;;9.52;63.64
62800;BME280;48842;51.046;13.796;2023-12-20T00:32:20;99944.31;;;9.51;63.55
62800;BME280;48842;51.046;13.796;2023-12-20T00:34:45;99954.78;;;9.51;63.38
62800;BME280;48842;51.046;13.796;2023-12-20T00:37:10;99951.28;;;9.48;63.44
62800;BME280;48842;51.046;13.796;2023-12-20T00:39:36;99962.59;;;9.45;63.15
62800;BME280;48842;51.046;13.796;2023-12-20T00:42:01;99959.09;;;9.44;63.46
62800;BME280;48842;51.046;13.796;2023-12-20T00:44:26;99963.47;;;9.44;62.95
62800;BME280;48842;51.046;13.796;2023-12-20T00:46:51;99949.53;;;9.43;63.22
62800;BME280;48842;51.046;13.796;2023-12-20T00:49:17;99951.25;;;9.37;63.08
62800;BME280;48842;51.046;13.796;2023-12-20T00:51:42;99952.09;;;9.33;62.84
62800;BME280;48842;51.046;13.796;2023-12-20T00:54:07;99949.50;;;9.33;63.06
62800;BME280;48842;51.046;13.796;2023-12-20T00:56:32;99932.94;;;9.31;63.13
62800;BME280;48842;51.046;13.796;2023-12-20T00:58:58;99942.53;;;9.32;63.54
62800;BME280;48842;51.046;13.796;2023-12-20T01:01:23;99937.31;;;9.35;63.25
62800;BME280;48842;51.046;13.796;2023-12-20T01:03:48;99932.09;;;9.35;63.34
62800;BME280;48842;51.046;13.796;2023-12-20T01:06:16;99933.81;;;9.36;63.14
62800;BME280;48842;51.046;13.796;2023-12-20T01:08:41;99929.47;;;9.36;63.06
62800;BME280;48842;51.046;13.796;2023-12-20T01:11:06;99921.63;;;9.32;63.16
62800;BME280;48842;51.046;13.796;2023-12-20T01:13:32;99924.25;;;9.30;63.00
62800;BME280;48842;51.046;13.796;2023-12-20T01:15:57;99920.75;;;9.31;62.88
62800;BME280;48842;51.046;13.796;2023-12-20T01:18:22;99913.75;;;9.27;62.82
62800;BME280;48842;51.046;13.796;2023-12-20T01:20:47;99914.66;;;9.28;62.54
62800;BME280;48842;51.046;13.796;2023-12-20T01:23:12;99909.41;;;9.28;62.91
62800;BME280;48842;51.046;13.796;2023-12-20T01:25:39;99912.03;;;9.26;62.86
62800;BME280;48842;51.046;13.796;2023-12-20T01:28:04;99906.81;;;9.24;62.78
62800;BME280;48842;51.046;13.796;2023-12-20T01:30:29;99913.75;;;9.21;62.62
62800;BME280;48842;51.046;13.796;2023-12-20T01:32:54;99910.28;;;9.19;63.04
62800;BME280;48842;51.046;13.796;2023-12-20T01:35:20;99905.03;;;9.16;62.78
62800;BME280;48842;51.046;13.796;2023-12-20T01:37:45;99908.50;;;9.15;62.64
62800;BME280;48842;51.046;13.796;2023-12-20T01:40:10;99901.53;;;9.12;62.97
62800;BME280;48842;51.046;13.796;2023-12-20T01:42:36;99898.91;;;9.14;62.71
62800;BME280;48842;51.046;13.796;2023-12-20T01:45:01;99900.66;;;9.10;62.55
62800;BME280;48842;51.046;13.796;2023-12-20T01:47:27;99904.13;;;9.09;62.72
62800;BME280;48842;51.046;13.796;2023-12-20T01:49:52;99909.38;;;9.06;62.35
62800;BME280;48842;51.046;13.796;2023-12-20T01:52:19;99895.44;;;9.04;62.98
62800;BME280;48842;51.046;13.796;2023-12-20T01:54:44;99894.53;;;9.05;62.65
62800;BME280;48842;51.046;13.796;2023-12-20T01:57:10;99897.16;;;9.08;62.80
62800;BME280;48842;51.046;13.796;2023-12-20T01:59:35;99893.69;;;9.12;62.63
62800;BME280;48842;51.046;13.796;2023-12-20T02:02:03;99899.81;;;9.14;62.60
62800;BME280;48842;51.046;13.796;2023-12-20T02:04:28;99899.81;;;9.13;62.73
62800;BME280;48842;51.046;13.796;2023-12-20T02:06:55;99897.19;;;9.13;62.75
62800;BME280;48842;51.046;13.796;2023-12-20T02:09:22;99895.44;;;9.13;62.75
62800;BME280;48842;51.046;13.796;2023-12-20T02:11:47;99890.22;;;9.10;62.73
62800;BME280;48842;51.046;13.796;2023-12-20T02:14:13;99887.59;;;9.05;62.61
62800;BME280;48842;51.046;13.796;2023-12-20T02:16:38;99887.59;;;9.04;62.67
62800;BME280;48842;51.046;13.796;2023-12-20T02:19:09;99880.63;;;9.06;62.66
62800;BME280;48842;51.046;13.796;2023-12-20T02:21:37;99880.63;;;9.06;62.62
62800;BME280;48842;51.046;13.796;2023-12-20T02:24:03;99888.47;;;9.06;62.96
62800;BME280;48842;51.046;13.796;2023-12-20T02:26:28;99879.75;;;9.05;62.65
62800;BME280;48842;51.046;13.796;2023-12-20T02:28:54;99876.25;;;9.00;62.21
62800;BME280;48842;51.046;13.796;2023-12-20T02:31:23;99878.00;;;8.97;62.41
62800;BME280;48842;51.046;13.796;2023-12-20T02:33:48;99872.78;;;8.98;62.47
62800;BME280;48842;51.046;13.796;2023-12-20T02:36:13;99862.31;;;8.98;62.41
62800;BME280;48842;51.046;13.796;2023-12-20T02:38:39;99872.78;;;8.95;62.10
62800;BME280;48842;51.046;13.796;2023-12-20T02:41:04;99871.00;;;8.93;62.29
62800;BME280;48842;51.046;13.796;2023-12-20T02:43:29;99860.56;;;8.93;62.14
62800;BME280;48842;51.046;13.796;2023-12-20T02:45:54;99864.03;;;8.91;62.25
62800;BME280;48842;51.046;13.796;2023-12-20T02:48:20;99856.19;;;8.87;62.19
62800;BME280;48842;51.046;13.796;2023-12-20T02:50:46;99851.81;;;8.81;61.87
62800;BME280;48842;51.046;13.796;2023-12-20T02:53:13;99853.56;;;8.79;62.21
62800;BME280;48842;51.046;13.796;2023-12-20T02:55:38;99860.50;;;8.74;62.09
62800;BME280;48842;51.046;13.796;2023-12-20T02:58:03;99863.94;;;8.67;62.45
62800;BME280;48842;51.046;13.796;2023-12-20T03:00:28;99863.09;;;8.68;62.44
62800;BME280;48842;51.046;13.796;2023-12-20T03:02:54;99868.31;;;8.71;62.39
62800;BME280;48842;51.046;13.796;2023-12-20T03:05:19;99859.59;;;8.66;62.16
62800;BME280;48842;51.046;13.796;2023-12-20T03:07:45;99861.31;;;8.61;62.23
62800;BME280;48842;51.046;13.796;2023-12-20T03:10:10;99854.34;;;8.61;62.36
62800;BME280;48842;51.046;13.796;2023-12-20T03:12:36;99859.56;;;8.60;62.28
62800;BME280;48842;51.046;13.796;2023-12-20T03:15:01;99855.25;;;8.59;62.45
62800;BME280;48842;51.046;13.796;2023-12-20T03:17:26;99852.59;;;8.55;62.78
62800;BME280;48842;51.046;13.796;2023-12-20T03:19:51;99850.84;;;8.51;62.57
62800;BME280;48842;51.046;13.796;2023-12-20T03:22:17;99853.47;;;8.54;62.74
62800;BME280;48842;51.046;13.796;2023-12-20T03:24:42;99863.03;;;8.57;62.54
62800;BME280;48842;51.046;13.796;2023-12-20T03:27:07;99849.13;;;8.53;62.74
62800;BME280;48842;51.046;13.796;2023-12-20T03:29:32;99839.50;;;8.49;62.77
62800;BME280;48842;51.046;13.796;2023-12-20T03:31:58;99835.16;;;8.47;62.74
62800;BME280;48842;51.046;13.796;2023-12-20T03:34:23;99836.91;;;8.48;63.13
62800;BME280;48842;51.046;13.796;2023-12-20T03:36:48;99827.31;;;8.48;63.00
62800;BME280;48842;51.046;13.796;2023-12-20T03:39:14;99833.44;;;8.49;62.78
62800;BME280;48842;51.046;13.796;2023-12-20T03:41:39;99828.22;;;8.49;63.21
62800;BME280;48842;51.046;13.796;2023-12-20T03:44:04;99831.69;;;8.46;62.93
62800;BME280;48842;51.046;13.796;2023-12-20T03:46:29;99829.06;;;8.46;63.38
62800;BME280;48842;51.046;13.796;2023-12-20T03:48:55;99836.91;;;8.49;63.56
62800;BME280;48842;51.046;13.796;2023-12-20T03:51:20;99829.06;;;8.49;63.17
62800;BME280;48842;51.046;13.796;2023-12-20T03:53:45;99835.16;;;8.48;63.47
62800;BME280;48842;51.046;13.796;2023-12-20T03:56:11;99830.81;;;8.47;63.39
62800;BME280;48842;51.046;13.796;2023-12-20T03:58:36;99824.72;;;8.47;63.48
62800;BME280;48842;51.046;13.796;2023-12-20T04:01:01;99832.53;;;8.48;63.61
62800;BME280;48842;51.046;13.796;2023-12-20T04:03:27;99840.41;;;8.50;63.25
62800;BME280;48842;51.046;13.796;2023-12-20T04:05:53;99837.81;;;8.51;63.67
62800;BME280;48842;51.046;13.796;2023-12-20T04:08:18;99829.97;;;8.51;63.66
62800;BME280;48842;51.046;13.796;2023-12-20T04:10:43;99836.06;;;8.53;63.58
62800;BME280;48842;51.046;13.796;2023-12-20T04:13:09;99834.34;;;8.59;63.42
62800;BME280;48842;51.046;13.796;2023-12-20T04:15:34;99826.53;;;8.65;63.74
62800;BME280;48842;51.046;13.796;2023-12-20T04:17:59;99834.38;;;8.68;63.63
62800;BME280;48842;51.046;13.796;2023-12-20T04:20:24;99826.56;;;8.72;63.61
62800;BME280;48842;51.046;13.796;2023-12-20T04:22:50;99836.16;;;8.75;63.69
62800;BME280;48842;51.046;13.796;2023-12-20T04:25:15;99833.53;;;8.75;63.74
62800;BME280;48842;51.046;13.796;2023-12-20T04:27:40;99836.16;;;8.78;63.86
62800;BME280;48842;51.046;13.796;2023-12-20T04:30:06;99831.78;;;8.77;63.42
62800;BME280;48842;51.046;13.796;2023-12-20T04:32:32;99836.16;;;8.75;63.73
62800;BME280;48842;51.046;13.796;2023-12-20T04:34:57;99834.38;;;8.74;63.57
62800;BME280;48842;51.046;13.796;2023-12-20T04:37:23;99838.75;;;8.77;63.80
62800;BME280;48842;51.046;13.796;2023-12-20T04:39:48;99835.28;;;8.79;63.48
62800;BME280;48842;51.046;13.796;2023-12-20T04:42:13;99827.41;;;8.74;63.68
62800;BME280;48842;51.046;13.796;2023-12-20T04:44:39;99831.78;;;8.74;63.78
62800;BME280;48842;51.046;13.796;2023-12-20T04:47:04;99834.41;;;8.77;63.75
62800;BME280;48842;51.046;13.796;2023-12-20T04:49:29;99836.16;;;8.80;63.61
62800;BME280;48842;51.046;13.796;2023-12-20T04:51:54;99828.31;;;8.81;63.55
62800;BME280;48842;51.046;13.796;2023-12-20T04:54:20;99832.69;;;8.82;64.13
62800;BME280;48842;51.046;13.796;2023-12-20T04:56:46;99837.91;;;8.84;63.46
62800;BME280;48842;51.046;13.796;2023-12-20T04:59:11;99845.75;;;8.87;63.73
62800;BME280;48842;51.046;13.796;2023-12-20T05:01:36;99841.38;;;8.90;63.93
62800;BME280;48842;51.046;13.796;2023-12-20T05:04:01;99837.91;;;8.91;63.95
62800;BME280;48842;51.046;13.796;2023-12-20T05:06:27;99843.13;;;8.91;63.53
62800;BME280;48842;51.046;13.796;2023-12-20T05:08:52;99834.44;;;8.93;64.24
62800;BME280;48842;51.046;13.796;2023-12-20T05:11:17;99835.31;;;8.95;64.19
62800;BME280;48842;51.046;13.796;2023-12-20T05:13:42;99836.22;;;8.97;64.14
62800;BME280;48842;51.046;13.796;2023-12-20T05:16:08;99834.44;;;8.96;63.84
62800;BME280;48842;51.046;13.796;2023-12-20T05:18:34;99837.91;;;8.95;63.89
62800;BME280;48842;51.046;13.796;2023-12-20T05:20:59;99834.44;;;8.94;63.95
62800;BME280;48842;51.046;13.796;2023-12-20T05:23:24;99831.84;;;8.96;64.08
62800;BME280;48842;51.046;13.796;2023-12-20T05:25:50;99839.69;;;8.96;64.56
62800;BME280;48842;51.046;13.796;2023-12-20T05:28:15;99852.75;;;8.96;64.12
62800;BME280;48842;51.046;13.796;2023-12-20T05:30:40;99852.75;;;8.99;64.22
62800;BME280;48842;51.046;13.796;2023-12-20T05:33:05;99856.22;;;9.01;64.24
62800;BME280;48842;51.046;13.796;2023-12-20T05:35:31;99852.75;;;9.00;64.29
62800;BME280;48842;51.046;13.796;2023-12-20T05:37:56;99855.34;;;8.99;64.18
62800;BME280;48842;51.046;13.796;2023-12-20T05:40:21;99852.75;;;8.99;64.15
62800;BME280;48842;51.046;13.796;2023-12-20T05:42:46;99850.13;;;8.99;64.14
62800;BME280;48842;51.046;13.796;2023-12-20T05:45:12;99846.66;;;9.00;64.08
62800;BME280;48842;51.046;13.796;2023-12-20T05:47:38;99853.59;;;8.99;64.23
62800;BME280;48842;51.046;13.796;2023-12-20T05:50:03;99862.34;;;9.01;64.38
62800;BME280;48842;51.046;13.796;2023-12-20T05:52:30;99854.50;;;9.03;64.60
62800;BME280;48842;51.046;13.796;2023-12-20T05:54:55;99868.41;;;9.05;64.32
62800;BME280;48842;51.046;13.796;2023-12-20T05:57:23;99862.34;;;9.03;64.31
62800;BME280;48842;51.046;13.796;2023-12-20T05:59:48;99857.09;;;9.00;64.13
62800;BME280;48842;51.046;13.796;2023-12-20T06:02:13;99871.88;;;8.95;64.20
62800;BME280;48842;51.046;13.796;2023-12-20T06:04:42;99885.78;;;8.89;64.28
62800;BME280;48842;51.046;13.796;2023-12-20T06:07:07;99888.41;;;8.87;64.26
62800;BME280;48842;51.046;13.796;2023-12-20T06:09:32;99879.69;;;8.85;64.54
62800;BME280;48842;51.046;13.796;2023-12-20T06:11:57;99881.41;;;8.82;64.49
62800;BME280;48842;51.046;13.796;2023-12-20T06:14:23;99879.69;;;8.82;64.42
62800;BME280;48842;51.046;13.796;2023-12-20T06:16:48;99874.47;;;8.85;64.46
62800;BME280;48842;51.046;13.796;2023-12-20T06:19:13;99878.84;;;8.88;64.47
62800;BME280;48842;51.046;13.796;2023-12-20T06:21:39;99880.56;;;8.89;64.44
62800;BME280;48842;51.046;13.796;2023-12-20T06:24:04;99877.09;;;8.90;64.48
62800;BME280;48842;51.046;13.796;2023-12-20T06:26:29;99882.31;;;8.91;64.46
62800;BME280;48842;51.046;13.796;2023-12-20T06:28:55;99872.72;;;8.92;64.70
62800;BME280;48842;51.046;13.796;2023-12-20T06:31:20;99875.34;;;8.90;64.45
62800;BME280;48842;51.046;13.796;2023-12-20T06:33:45;99872.72;;;8.90;64.72
62800;BME280;48842;51.046;13.796;2023-12-20T06:36:11;99882.31;;;8.93;64.47
62800;BME280;48842;51.046;13.796;2023-12-20T06:38:38;99889.31;;;8.94;64.46
62800;BME280;48842;51.046;13.796;2023-12-20T06:41:03;99895.38;;;8.95;64.31
62800;BME280;48842;51.046;13.796;2023-12-20T06:43:29;99897.13;;;8.93;64.12
62800;BME280;48842;51.046;13.796;2023-12-20T06:45:55;99898.84;;;8.92;64.50
62800;BME280;48842;51.046;13.796;2023-12-20T06:48:20;99907.59;;;8.93;64.58
62800;BME280;48842;51.046;13.796;2023-12-20T06:50:45;99909.28;;;8.87;64.75
62800;BME280;48842;51.046;13.796;2023-12-20T06:53:11;99916.25;;;8.82;64.86
62800;BME280;48842;51.046;13.796;2023-12-20T06:55:36;99923.19;;;8.80;64.84
62800;BME280;48842;51.046;13.796;2023-12-20T06:58:03;99923.19;;;8.80;65.17
62800;BME280;48842;51.046;13.796;2023-12-20T07:00:28;99923.19;;;8.80;65.31
62800;BME280;48842;51.046;13.796;2023-12-20T07:02:54;99923.19;;;8.77;65.42
62800;BME280;48842;51.046;13.796;2023-12-20T07:05:19;99928.41;;;8.77;65.42
62800;BME280;48842;51.046;13.796;2023-12-20T07:07:45;99933.63;;;8.80;65.71
62800;BME280;48842;51.046;13.796;2023-12-20T07:10:11;99925.81;;;8.82;65.25
62800;BME280;48842;51.046;13.796;2023-12-20T07:12:36;99931.03;;;8.82;65.35
62800;BME280;48842;51.046;13.796;2023-12-20T07:15:02;99928.41;;;8.83;65.76
62800;BME280;48842;51.046;13.796;2023-12-20T07:17:27;99933.63;;;8.82;65.54
62800;BME280;48842;51.046;13.796;2023-12-20T07:19:52;99921.47;;;8.79;65.41
62800;BME280;48842;51.046;13.796;2023-12-20T07:22:18;99926.69;;;8.82;65.55
62800;BME280;48842;51.046;13.796;2023-12-20T07:24:43;99931.06;;;8.85;65.49
62800;BME280;48842;51.046;13.796;2023-12-20T07:27:08;99931.94;;;8.85;65.40
62800;BME280;48842;51.046;13.796;2023-12-20T07:29:34;99936.25;;;8.83;65.52
62800;BME280;48842;51.046;13.796;2023-12-20T07:31:59;99944.97;;;8.84;65.36
62800;BME280;48842;51.046;13.796;2023-12-20T07:34:24;99937.16;;;8.84;65.30
62800;BME280;48842;51.046;13.796;2023-12-20T07:36:49;99938.00;;;8.86;65.23
62800;BME280;48842;51.046;13.796;2023-12-20T07:39:15;99925.84;;;8.86;65.43
62800;BME280;48842;51.046;13.796;2023-12-20T07:41:40;99931.06;;;8.86;65.33
62800;BME280;48842;51.046;13.796;2023-12-20T07:44:06;99930.19;;;8.87;65.02
62800;BME280;48842;51.046;13.796;2023-12-20T07:46:31;99927.56;;;8.81;65.11
62800;BME280;48842;51.046;13.796;2023-12-20T07:48:57;99925.78;;;8.80;64.83
62800;BME280;48842;51.046;13.796;2023-12-20T07:51:22;99931.00;;;8.79;65.14
62800;BME280;48842;51.046;13.796;2023-12-20T07:53:47;99932.75;;;8.78;65.15
62800;BME280;48842;51.046;13.796;2023-12-20T07:56:19;99924.06;;;8.79;64.89
62800;BME280;48842;51.046;13.796;2023-12-20T07:58:45;99912.72;;;8.77;64.94
62800;BME280;48842;51.046;13.796;2023-12-20T08:01:11;99918.84;;;8.81;64.54
62800;BME280;48842;51.046;13.796;2023-12-20T08:03:36;99911.88;;;8.80;64.73
62800;BME280;48842;51.046;13.796;2023-12-20T08:06:02;99928.41;;;8.80;64.41
62800;BME280;48842;51.046;13.796;2023-12-20T08:08:27;99931.91;;;8.79;64.45
62800;BME280;48842;51.046;13.796;2023-12-20T08:10:53;99927.53;;;8.78;64.54
62800;BME280;48842;51.046;13.796;2023-12-20T08:13:18;99938.84;;;8.77;64.39
62800;BME280;48842;51.046;13.796;2023-12-20T08:15:43;99935.38;;;8.75;64.24
62800;BME280;48842;51.046;13.796;2023-12-20T08:18:09;99936.22;;;8.72;63.80
62800;BME280;48842;51.046;13.796;2023-12-20T08:20:34;99940.59;;;8.75;63.39
62800;BME280;48842;51.046;13.796;2023-12-20T08:22:59;99938.84;;;8.74;63.62
62800;BME280;48842;51.046;13.796;2023-12-20T08:25:24;99938.84;;;8.77;63.40
62800;BME280;48842;51.046;13.796;2023-12-20T08:27:50;99940.59;;;8.80;63.01
62800;BME280;48842;51.046;13.796;2023-12-20T08:30:15;99941.44;;;8.77;63.16
62800;BME280;48842;51.046;13.796;2023-12-20T08:32:42;99944.09;;;8.83;62.98
62800;BME280;48842;51.046;13.796;2023-12-20T08:35:07;99945.00;;;8.88;62.94
62800;BME280;48842;51.046;13.796;2023-12-20T08:37:33;99939.78;;;8.91;62.45
62800;BME280;48842;51.046;13.796;2023-12-20T08:39:59;99937.19;;;8.95;62.58
62800;BME280;48842;51.046;13.796;2023-12-20T08:42:24;99931.09;;;9.00;62.46
62800;BME280;48842;51.046;13.796;2023-12-20T08:44:55;99933.75;;;9.08;62.56
62800;BME280;48842;51.046;13.796;2023-12-20T08:47:21;99939.84;;;9.10;61.97
62800;BME280;48842;51.046;13.796;2023-12-20T08:49:46;99948.56;;;9.12;61.73
62800;BME280;48842;51.046;13.796;2023-12-20T08:52:11;99949.47;;;9.13;61.34
62800;BME280;48842;51.046;13.796;2023-12-20T08:54:36;99952.09;;;9.20;61.65
62800;BME280;48842;51.046;13.796;2023-12-20T08:57:02;99950.38;;;9.30;61.22
62800;BME280;48842;51.046;13.796;2023-12-20T08:59:27;99964.31;;;9.32;60.47
62800;BME280;48842;51.046;13.796;2023-12-20T09:01:52;99958.22;;;9.32;60.03
62800;BME280;48842;51.046;13.796;2023-12-20T09:04:20;99957.34;;;9.34;60.35
62800;BME280;48842;51.046;13.796;2023-12-20T09:06:45;99944.25;;;9.34;59.63
62800;BME280;48842;51.046;13.796;2023-12-20T09:09:10;99945.13;;;9.29;58.56
62800;BME280;48842;51.046;13.796;2023-12-20T09:11:38;99930.34;;;9.31;58.40
62800;BME280;48842;51.046;13.796;2023-12-20T09:14:03;99944.25;;;9.34;58.26
62800;BME280;48842;51.046;13.796;2023-12-20T09:16:29;99940.81;;;9.40;57.20
62800;BME280;48842;51.046;13.796;2023-12-20T09:18:54;99941.69;;;9.43;56.82
62800;BME280;48842;51.046;13.796;2023-12-20T09:21:22;99938.22;;;9.51;57.00
62800;BME280;48842;51.046;13.796;2023-12-20T09:23:48;99941.69;;;9.51;56.23
62800;BME280;48842;51.046;13.796;2023-12-20T09:26:13;99936.47;;;9.50;55.67
62800;BME280;48842;51.046;13.796;2023-12-20T09:28:38;99940.84;;;9.55;55.85
62800;BME280;48842;51.046;13.796;2023-12-20T09:31:06;99943.47;;;9.55;55.73
62800;BME280;48842;51.046;13.796;2023-12-20T09:33:31;99939.97;;;9.58;55.68
62800;BME280;48842;51.046;13.796;2023-12-20T09:35:57;99946.94;;;9.59;55.75
62800;BME280;48842;51.046;13.796;2023-12-20T09:38:22;99938.22;;;9.58;55.67
62800;BME280;48842;51.046;13.796;2023-12-20T09:40:47;99933.00;;;9.58;56.02
62800;BME280;48842;51.046;13.796;2023-12-20T09:43:19;99927.78;;;9.61;56.07
62800;BME280;48842;51.046;13.796;2023-12-20T09:45:46;99932.13;;;9.69;56.30
62800;BME280;48842;51.046;13.796;2023-12-20T09:48:12;99926.03;;;9.71;56.49
62800;BME280;48842;51.046;13.796;2023-12-20T09:50:40;99926.91;;;9.75;56.36
62800;BME280;48842;51.046;13.796;2023-12-20T09:53:08;99919.06;;;9.79;56.23
62800;BME280;48842;51.046;13.796;2023-12-20T09:55:35;99922.56;;;9.82;56.05
62800;BME280;48842;51.046;13.796;2023-12-20T09:58:01;99931.25;;;9.88;56.14
62800;BME280;48842;51.046;13.796;2023-12-20T10:00:27;99918.19;;;9.88;55.75
62800;BME280;48842;51.046;13.796;2023-12-20T10:02:59;99907.75;;;9.94;55.76
62800;BME280;48842;51.046;13.796;2023-12-20T10:05:29;99902.50;;;10.04;56.02
62800;BME280;48842;51.046;13.796;2023-12-20T10:07:55;99905.09;;;10.11;55.73
62800;BME280;48842;51.046;13.796;2023-12-20T10:10:20;99912.94;;;10.13;55.41
62800;BME280;48842;51.046;13.796;2023-12-20T10:13:07;99909.47;;;10.08;55.00
62800;BME280;48842;51.046;13.796;2023-12-20T10:15:34;99899.84;;;10.08;54.89
62800;BME280;48842;51.046;13.796;2023-12-20T10:18:00;99914.72;;;10.05;54.80
62800;BME280;48842;51.046;13.796;2023-12-20T10:20:26;99905.94;;;10.09;54.89
62800;BME280;48842;51.046;13.796;2023-12-20T10:22:54;99897.25;;;10.07;54.15
62800;BME280;48842;51.046;13.796;2023-12-20T10:25:20;99901.59;;;10.00;53.74
62800;BME280;48842;51.046;13.796;2023-12-20T10:27:46;99889.41;;;10.07;54.38
62800;BME280;48842;51.046;13.796;2023-12-20T10:30:12;99893.75;;;10.08;53.92
62800;BME280;48842;51.046;13.796;2023-12-20T10:32:37;99879.78;;;10.09;53.67
62800;BME280;48842;51.046;13.796;2023-12-20T10:35:02;99870.19;;;10.12;53.99
62800;BME280;48842;51.046;13.796;2023-12-20T10:37:30;99895.47;;;10.09;53.54
62800;BME280;48842;51.046;13.796;2023-12-20T10:39:57;99878.94;;;10.07;53.22
62800;BME280;48842;51.046;13.796;2023-12-20T10:42:28;99873.69;;;10.08;53.40
62800;BME280;48842;51.046;13.796;2023-12-20T10:44:54;99873.69;;;10.13;53.30
62800;BME280;48842;51.046;13.796;2023-12-20T10:47:20;99869.34;;;10.15;53.21
62800;BME280;48842;51.046;13.796;2023-12-20T10:49:46;99863.19;;;10.16;53.24
62800;BME280;48842;51.046;13.796;2023-12-20T10:52:15;99845.75;;;10.21;53.31
62800;BME280;48842;51.046;13.796;2023-12-20T10:54:41;99847.50;;;10.24;53.39
62800;BME280;48842;51.046;13.796;2023-12-20T10:57:07;99844.88;;;10.27;53.22
62800;BME280;48842;51.046;13.796;2023-12-20T10:59:39;99850.94;;;10.30;52.69
62800;BME280;48842;51.046;13.796;2023-12-20T11:02:05;99847.50;;;10.27;52.11
62800;BME280;48842;51.046;13.796;2023-12-20T11:08:02;99850.97;;;10.27;51.87
62800;BME280;48842;51.046;13.796;2023-12-20T11:13:53;99839.63;;;10.25;50.86
62800;BME280;48842;51.046;13.796;2023-12-20T11:16:19;99845.75;;;10.24;50.85
62800;BME280;48842;51.046;13.796;2023-12-20T11:18:45;99834.38;;;10.30;50.58
62800;BME280;48842;51.046;13.796;2023-12-20T11:21:13;99831.75;;;10.33;50.65
62800;BME280;48842;51.046;13.796;2023-12-20T11:23:42;99827.41;;;10.40;51.04
62800;BME280;48842;51.046;13.796;2023-12-20T11:26:07;99830.88;;;10.45;50.54
62800;BME280;48842;51.046;13.796;2023-12-20T11:28:32;99830.00;;;10.46;50.97
62800;BME280;48842;51.046;13.796;2023-12-20T11:31:05;99834.34;;;10.44;50.72
62800;BME280;48842;51.046;13.796;2023-12-20T11:33:36;99830.91;;;10.23;49.43
62800;BME280;48842;51.046;13.796;2023-12-20T11:36:02;99838.78;;;10.20;50.09
62800;BME280;48842;51.046;13.796;2023-12-20T11:38:36;99827.44;;;10.20;50.48
62800;BME280;48842;51.046;13.796;2023-12-20T11:41:05;99830.91;;;10.20;50.72
62800;BME280;48842;51.046;13.796;2023-12-20T11:43:32;99827.44;;;10.18;50.54
62800;BME280;48842;51.046;13.796;2023-12-20T11:46:06;99832.69;;;10.09;50.20
62800;BME280;48842;51.046;13.796;2023-12-20T11:48:35;99821.38;;;10.07;50.37
62800;BME280;48842;51.046;13.796;2023-12-20T11:51:00;99820.50;;;10.08;50.65
62800;BME280;48842;51.046;13.796;2023-12-20T11:53:26;99809.16;;;10.06;50.67
62800;BME280;48842;51.046;13.796;2023-12-20T11:55:51;99812.66;;;10.00;50.26
62800;BME280;48842;51.046;13.796;2023-12-20T11:58:17;99799.56;;;9.99;50.37
62800;BME280;48842;51.046;13.796;2023-12-20T12:00:42;99794.31;;;10.00;50.32
62800;BME280;48842;51.046;13.796;2023-12-20T12:03:08;99787.34;;;10.04;50.92
62800;BME280;48842;51.046;13.796;2023-12-20T12:05:34;99795.22;;;10.01;50.31
62800;BME280;48842;51.046;13.796;2023-12-20T12:08:00;99788.22;;;10.07;50.26
62800;BME280;48842;51.046;13.796;2023-12-20T12:10:25;99780.38;;;10.12;50.22
62800;BME280;48842;51.046;13.796;2023-12-20T12:12:50;99787.31;;;10.13;50.34
62800;BME280;48842;51.046;13.796;2023-12-20T12:15:15;99783.84;;;10.14;50.10
62800;BME280;48842;51.046;13.796;2023-12-20T12:17:41;99786.44;;;10.14;50.20
62800;BME280;48842;51.046;13.796;2023-12-20T12:20:08;99768.13;;;10.16;50.12
62800;BME280;48842;51.046;13.796;2023-12-20T12:22:35;99769.84;;;10.21;50.01
62800;BME280;48842;51.046;13.796;2023-12-20T12:25:11;99766.34;;;10.25;50.05
62800;BME280;48842;51.046;13.796;2023-12-20T12:27:41;99761.13;;;10.25;49.97
62800;BME280;48842;51.046;13.796;2023-12-20T12:30:08;99761.16;;;10.19;49.27
62800;BME280;48842;51.046;13.796;2023-12-20T12:32:35;99752.44;;;10.14;49.13
62800;BME280;48842;51.046;13.796;2023-12-20T12:35:03;99750.69;;;10.13;49.37
62800;BME280;48842;51.046;13.796;2023-12-20T12:37:28;99752.47;;;10.09;49.18
62800;BME280;48842;51.046;13.796;2023-12-20T12:39:54;99734.09;;;10.17;49.21
62800;BME280;48842;51.046;13.796;2023-12-20T12:42:20;99735.81;;;10.24;49.22
62800;BME280;48842;51.046;13.796;2023-12-20T12:44:46;99731.44;;;10.31;49.22
62800;BME280;48842;51.046;13.796;2023-12-20T12:47:11;99743.66;;;10.34;49.17
62800;BME280;48842;51.046;13.796;2023-12-20T12:49:37;99728.81;;;10.37;49.06
62800;BME280;48842;51.046;13.796;2023-12-20T12:52:03;99731.38;;;10.45;48.90
62800;BME280;48842;51.046;13.796;2023-12-20T12:54:28;99720.91;;;10.45;49.02
62800;BME280;48842;51.046;13.796;2023-12-20T12:56:54;99739.22;;;10.45;48.72